sensor_id;sensor_type;location;lat;lon;timestamp;P1;durP1;ratioP1;P2;durP2;ratioP2
53389;SDS011;39288;42.970;1.524;2024-03-02T00:00:25;3.10;;;2.10;;
53389;SDS011;39288;42.970;1.524;2024-03-02T00:01:27;3.53;;;1.60;;
53389;SDS011;39288;42.970;1.524;2024-03-02T00:02:27;4.03;;;2.20;;
53389;SDS011;39288;42.970;1.524;2024-03-02T00:03:28;4.33;;;1.87;;
53389;SDS011;39288;42.970;1.524;2024-03-02T00:04:28;2.80;;;2.20;;
53389;SDS011;39288;42.970;1.524;2024-03-02T00:05:28;3.00;;;1.90;;
53389;SDS011;39288;42.970;1.524;2024-03-02T00:06:29;5.37;;;2.40;;
53389;SDS011;39288;42.970;1.524;2024-03-02T00:07:29;2.87;;;1.90;;
53389;SDS011;39288;42.970;1.524;2024-03-02T00:09:32;5.45;;;1.95;;
53389;SDS011;39288;42.970;1.524;2024-03-02T00:10:39;3.00;;;2.00;;
53389;SDS011;39288;42.970;1.524;2024-03-02T00:11:40;3.58;;;1.70;;
53389;SDS011;39288;42.970;1.524;2024-03-02T00:12:40;3.67;;;1.67;;
53389;SDS011;39288;42.970;1.524;2024-03-02T00:13:41;3.22;;;1.75;;
53389;SDS011;39288;42.970;1.524;2024-03-02T00:14:42;2.80;;;1.93;;
53389;SDS011;39288;42.970;1.524;2024-03-02T00:15:46;2.80;;;1.73;;
53389;SDS011;39288;42.970;1.524;2024-03-02T00:16:47;4.30;;;1.52;;
53389;SDS011;39288;42.970;1.524;2024-03-02T00:17:52;2.53;;;1.50;;
53389;SDS011;39288;42.970;1.524;2024-03-02T00:18:53;2.92;;;1.58;;
53389;SDS011;39288;42.970;1.524;2024-03-02T00:19:54;7.20;;;1.87;;
53389;SDS011;39288;42.970;1.524;2024-03-02T00:20:55;3.30;;;1.70;;
53389;SDS011;39288;42.970;1.524;2024-03-02T00:22:00;3.05;;;1.35;;
53389;SDS011;39288;42.970;1.524;2024-03-02T00:23:04;7.78;;;2.05;;
53389;SDS011;39288;42.970;1.524;2024-03-02T00:25:19;6.35;;;2.80;;
53389;SDS011;39288;42.970;1.524;2024-03-02T00:26:19;4.33;;;2.60;;
53389;SDS011;39288;42.970;1.524;2024-03-02T00:27:20;2.57;;;1.47;;
53389;SDS011;39288;42.970;1.524;2024-03-02T00:28:22;3.53;;;1.75;;
53389;SDS011;39288;42.970;1.524;2024-03-02T00:29:34;2.30;;;1.40;;
53389;SDS011;39288;42.970;1.524;2024-03-02T00:31:44;3.75;;;1.83;;
53389;SDS011;39288;42.970;1.524;2024-03-02T00:32:44;2.97;;;1.90;;
53389;SDS011;39288;42.970;1.524;2024-03-02T00:33:45;2.97;;;2.10;;
53389;SDS011;39288;42.970;1.524;2024-03-02T00:34:47;6.38;;;3.40;;
53389;SDS011;39288;42.970;1.524;2024-03-02T00:35:47;4.87;;;2.83;;
53389;SDS011;39288;42.970;1.524;2024-03-02T00:36:49;5.18;;;2.58;;
53389;SDS011;39288;42.970;1.524;2024-03-02T00:37:49;4.10;;;2.20;;
53389;SDS011;39288;42.970;1.524;2024-03-02T00:38:50;10.10;;;4.10;;
53389;SDS011;39288;42.970;1.524;2024-03-02T00:39:53;8.93;;;4.70;;
53389;SDS011;39288;42.970;1.524;2024-03-02T00:40:53;12.00;;;5.23;;
53389;SDS011;39288;42.970;1.524;2024-03-02T00:41:54;10.53;;;4.93;;
53389;SDS011;39288;42.970;1.524;2024-03-02T00:42:55;6.60;;;3.97;;
53389;SDS011;39288;42.970;1.524;2024-03-02T00:45:07;4.78;;;3.45;;
53389;SDS011;39288;42.970;1.524;2024-03-02T00:46:08;6.60;;;3.90;;
53389;SDS011;39288;42.970;1.524;2024-03-02T00:47:08;8.10;;;4.10;;
53389;SDS011;39288;42.970;1.524;2024-03-02T00:48:09;10.43;;;6.17;;
53389;SDS011;39288;42.970;1.524;2024-03-02T00:49:17;6.37;;;4.63;;
53389;SDS011;39288;42.970;1.524;2024-03-02T00:50:20;5.40;;;3.58;;
53389;SDS011;39288;42.970;1.524;2024-03-02T00:51:22;3.30;;;1.90;;
53389;SDS011;39288;42.970;1.524;2024-03-02T00:52:25;2.33;;;1.67;;
53389;SDS011;39288;42.970;1.524;2024-03-02T00:53:26;4.87;;;2.03;;
53389;SDS011;39288;42.970;1.524;2024-03-02T00:54:26;3.10;;;2.10;;
53389;SDS011;39288;42.970;1.524;2024-03-02T00:55:28;4.07;;;1.90;;
53389;SDS011;39288;42.970;1.524;2024-03-02T00:56:28;3.17;;;1.87;;
53389;SDS011;39288;42.970;1.524;2024-03-02T00:57:29;4.60;;;2.07;;
53389;SDS011;39288;42.970;1.524;2024-03-02T00:58:34;5.95;;;1.80;;
53389;SDS011;39288;42.970;1.524;2024-03-02T00:59:34;4.27;;;1.57;;
53389;SDS011;39288;42.970;1.524;2024-03-02T01:00:35;5.23;;;1.90;;
53389;SDS011;39288;42.970;1.524;2024-03-02T01:01:35;1.93;;;1.50;;
53389;SDS011;39288;42.970;1.524;2024-03-02T01:02:36;6.00;;;2.60;;
53389;SDS011;39288;42.970;1.524;2024-03-02T01:03:36;3.40;;;2.30;;
53389;SDS011;39288;42.970;1.524;2024-03-02T01:04:37;2.80;;;2.03;;
53389;SDS011;39288;42.970;1.524;2024-03-02T01:05:41;3.13;;;1.83;;
53389;SDS011;39288;42.970;1.524;2024-03-02T01:06:42;4.85;;;2.00;;
53389;SDS011;39288;42.970;1.524;2024-03-02T01:07:43;4.50;;;2.08;;
53389;SDS011;39288;42.970;1.524;2024-03-02T01:08:44;2.83;;;1.63;;
53389;SDS011;39288;42.970;1.524;2024-03-02T01:09:45;3.85;;;1.42;;
53389;SDS011;39288;42.970;1.524;2024-03-02T01:10:45;5.13;;;1.60;;
53389;SDS011;39288;42.970;1.524;2024-03-02T01:11:46;5.23;;;2.00;;
53389;SDS011;39288;42.970;1.524;2024-03-02T01:12:46;3.90;;;2.17;;
53389;SDS011;39288;42.970;1.524;2024-03-02T01:13:47;4.93;;;2.07;;
53389;SDS011;39288;42.970;1.524;2024-03-02T01:14:48;6.37;;;1.60;;
53389;SDS011;39288;42.970;1.524;2024-03-02T01:15:48;1.70;;;1.23;;
53389;SDS011;39288;42.970;1.524;2024-03-02T01:16:49;1.33;;;0.90;;
53389;SDS011;39288;42.970;1.524;2024-03-02T01:17:49;3.93;;;1.30;;
53389;SDS011;39288;42.970;1.524;2024-03-02T01:18:50;3.20;;;1.80;;
53389;SDS011;39288;42.970;1.524;2024-03-02T01:19:50;4.10;;;1.50;;
53389;SDS011;39288;42.970;1.524;2024-03-02T01:20:51;4.80;;;1.73;;
53389;SDS011;39288;42.970;1.524;2024-03-02T01:21:51;3.87;;;1.63;;
53389;SDS011;39288;42.970;1.524;2024-03-02T01:22:52;5.73;;;1.90;;
53389;SDS011;39288;42.970;1.524;2024-03-02T01:23:53;6.57;;;1.97;;
53389;SDS011;39288;42.970;1.524;2024-03-02T01:24:53;6.43;;;2.27;;
53389;SDS011;39288;42.970;1.524;2024-03-02T01:25:54;3.00;;;2.00;;
53389;SDS011;39288;42.970;1.524;2024-03-02T01:26:55;3.07;;;1.63;;
53389;SDS011;39288;42.970;1.524;2024-03-02T01:27:56;2.90;;;1.90;;
53389;SDS011;39288;42.970;1.524;2024-03-02T01:28:56;3.07;;;1.93;;
53389;SDS011;39288;42.970;1.524;2024-03-02T01:29:56;4.00;;;1.83;;
53389;SDS011;39288;42.970;1.524;2024-03-02T01:30:59;3.03;;;1.55;;
53389;SDS011;39288;42.970;1.524;2024-03-02T01:32:02;5.38;;;2.55;;
53389;SDS011;39288;42.970;1.524;2024-03-02T01:33:03;4.78;;;1.80;;
53389;SDS011;39288;42.970;1.524;2024-03-02T01:34:05;5.15;;;2.10;;
53389;SDS011;39288;42.970;1.524;2024-03-02T01:35:05;4.43;;;2.60;;
53389;SDS011;39288;42.970;1.524;2024-03-02T01:36:07;6.15;;;2.50;;
53389;SDS011;39288;42.970;1.524;2024-03-02T01:37:08;5.80;;;2.50;;
53389;SDS011;39288;42.970;1.524;2024-03-02T01:38:12;4.35;;;2.33;;
53389;SDS011;39288;42.970;1.524;2024-03-02T01:39:12;4.93;;;2.27;;
53389;SDS011;39288;42.970;1.524;2024-03-02T01:40:12;4.43;;;2.30;;
53389;SDS011;39288;42.970;1.524;2024-03-02T01:41:13;4.37;;;2.10;;
53389;SDS011;39288;42.970;1.524;2024-03-02T01:42:14;5.40;;;2.10;;
53389;SDS011;39288;42.970;1.524;2024-03-02T01:43:14;4.23;;;1.90;;
53389;SDS011;39288;42.970;1.524;2024-03-02T01:44:15;2.47;;;1.47;;
53389;SDS011;39288;42.970;1.524;2024-03-02T01:45:15;4.10;;;1.90;;
53389;SDS011;39288;42.970;1.524;2024-03-02T01:46:16;6.80;;;2.00;;
53389;SDS011;39288;42.970;1.524;2024-03-02T01:47:16;4.10;;;1.63;;
53389;SDS011;39288;42.970;1.524;2024-03-02T01:48:17;3.33;;;2.13;;
53389;SDS011;39288;42.970;1.524;2024-03-02T01:49:17;5.07;;;1.60;;
53389;SDS011;39288;42.970;1.524;2024-03-02T01:50:25;4.95;;;2.15;;
53389;SDS011;39288;42.970;1.524;2024-03-02T01:51:27;5.43;;;1.98;;
53389;SDS011;39288;42.970;1.524;2024-03-02T01:52:27;8.90;;;2.20;;
53389;SDS011;39288;42.970;1.524;2024-03-02T01:53:28;4.33;;;2.00;;
53389;SDS011;39288;42.970;1.524;2024-03-02T01:54:28;2.53;;;1.53;;
53389;SDS011;39288;42.970;1.524;2024-03-02T01:55:29;4.43;;;1.70;;
53389;SDS011;39288;42.970;1.524;2024-03-02T01:56:30;3.60;;;2.10;;
53389;SDS011;39288;42.970;1.524;2024-03-02T01:57:30;3.20;;;1.73;;
53389;SDS011;39288;42.970;1.524;2024-03-02T01:58:31;4.83;;;1.80;;
53389;SDS011;39288;42.970;1.524;2024-03-02T01:59:32;4.33;;;2.23;;
53389;SDS011;39288;42.970;1.524;2024-03-02T02:00:32;3.53;;;1.77;;
53389;SDS011;39288;42.970;1.524;2024-03-02T02:01:32;3.93;;;1.87;;
53389;SDS011;39288;42.970;1.524;2024-03-02T02:02:33;5.30;;;1.93;;
53389;SDS011;39288;42.970;1.524;2024-03-02T02:03:33;2.37;;;1.50;;
53389;SDS011;39288;42.970;1.524;2024-03-02T02:04:34;3.40;;;2.07;;
53389;SDS011;39288;42.970;1.524;2024-03-02T02:05:34;2.67;;;1.70;;
53389;SDS011;39288;42.970;1.524;2024-03-02T02:06:35;4.03;;;1.97;;
53389;SDS011;39288;42.970;1.524;2024-03-02T02:07:35;6.07;;;2.00;;
53389;SDS011;39288;42.970;1.524;2024-03-02T02:08:37;4.65;;;1.73;;
53389;SDS011;39288;42.970;1.524;2024-03-02T02:09:37;5.07;;;2.37;;
53389;SDS011;39288;42.970;1.524;2024-03-02T02:10:38;4.13;;;2.50;;
53389;SDS011;39288;42.970;1.524;2024-03-02T02:11:38;5.27;;;2.20;;
53389;SDS011;39288;42.970;1.524;2024-03-02T02:12:39;4.73;;;2.30;;
53389;SDS011;39288;42.970;1.524;2024-03-02T02:13:39;3.67;;;2.37;;
53389;SDS011;39288;42.970;1.524;2024-03-02T02:14:46;4.10;;;2.13;;
53389;SDS011;39288;42.970;1.524;2024-03-02T02:15:47;3.00;;;1.80;;
53389;SDS011;39288;42.970;1.524;2024-03-02T02:16:48;6.73;;;1.80;;
53389;SDS011;39288;42.970;1.524;2024-03-02T02:17:48;3.90;;;2.20;;
53389;SDS011;39288;42.970;1.524;2024-03-02T02:18:49;6.83;;;2.07;;
53389;SDS011;39288;42.970;1.524;2024-03-02T02:19:49;7.00;;;2.53;;
53389;SDS011;39288;42.970;1.524;2024-03-02T02:20:49;4.23;;;2.40;;
53389;SDS011;39288;42.970;1.524;2024-03-02T02:21:50;5.40;;;2.20;;
53389;SDS011;39288;42.970;1.524;2024-03-02T02:22:54;5.00;;;2.40;;
53389;SDS011;39288;42.970;1.524;2024-03-02T02:23:55;4.25;;;2.45;;
53389;SDS011;39288;42.970;1.524;2024-03-02T02:24:56;3.90;;;2.17;;
53389;SDS011;39288;42.970;1.524;2024-03-02T02:25:56;4.07;;;1.93;;
53389;SDS011;39288;42.970;1.524;2024-03-02T02:26:56;4.43;;;2.20;;
53389;SDS011;39288;42.970;1.524;2024-03-02T02:27:57;7.10;;;2.47;;
53389;SDS011;39288;42.970;1.524;2024-03-02T02:28:58;5.23;;;2.00;;
53389;SDS011;39288;42.970;1.524;2024-03-02T02:29:58;3.70;;;1.60;;
53389;SDS011;39288;42.970;1.524;2024-03-02T02:31:01;7.85;;;1.75;;
53389;SDS011;39288;42.970;1.524;2024-03-02T02:32:01;4.93;;;1.80;;
53389;SDS011;39288;42.970;1.524;2024-03-02T02:33:02;3.47;;;1.90;;
53389;SDS011;39288;42.970;1.524;2024-03-02T02:34:03;3.13;;;1.87;;
53389;SDS011;39288;42.970;1.524;2024-03-02T02:35:03;4.20;;;2.20;;
53389;SDS011;39288;42.970;1.524;2024-03-02T02:36:04;3.03;;;1.45;;
53389;SDS011;39288;42.970;1.524;2024-03-02T02:37:05;5.73;;;1.40;;
53389;SDS011;39288;42.970;1.524;2024-03-02T02:38:05;3.90;;;1.77;;
53389;SDS011;39288;42.970;1.524;2024-03-02T02:39:06;4.40;;;1.60;;
53389;SDS011;39288;42.970;1.524;2024-03-02T02:40:11;5.90;;;1.85;;
53389;SDS011;39288;42.970;1.524;2024-03-02T02:41:12;3.58;;;1.70;;
53389;SDS011;39288;42.970;1.524;2024-03-02T02:42:13;4.73;;;2.07;;
53389;SDS011;39288;42.970;1.524;2024-03-02T02:43:13;4.63;;;1.80;;
53389;SDS011;39288;42.970;1.524;2024-03-02T02:44:14;4.40;;;1.67;;
53389;SDS011;39288;42.970;1.524;2024-03-02T02:45:14;4.07;;;1.73;;
53389;SDS011;39288;42.970;1.524;2024-03-02T02:46:15;5.07;;;1.50;;
53389;SDS011;39288;42.970;1.524;2024-03-02T02:47:15;3.10;;;1.40;;
53389;SDS011;39288;42.970;1.524;2024-03-02T02:48:16;3.87;;;1.50;;
53389;SDS011;39288;42.970;1.524;2024-03-02T02:49:16;3.57;;;1.90;;
53389;SDS011;39288;42.970;1.524;2024-03-02T02:50:17;4.17;;;1.73;;
53389;SDS011;39288;42.970;1.524;2024-03-02T02:51:17;3.17;;;1.50;;
53389;SDS011;39288;42.970;1.524;2024-03-02T02:52:18;3.43;;;1.80;;
53389;SDS011;39288;42.970;1.524;2024-03-02T02:53:18;4.00;;;2.07;;
53389;SDS011;39288;42.970;1.524;2024-03-02T02:54:19;5.57;;;1.83;;
53389;SDS011;39288;42.970;1.524;2024-03-02T02:55:19;2.67;;;1.60;;
53389;SDS011;39288;42.970;1.524;2024-03-02T02:56:20;6.73;;;1.77;;
53389;SDS011;39288;42.970;1.524;2024-03-02T02:57:20;4.57;;;2.03;;
53389;SDS011;39288;42.970;1.524;2024-03-02T02:58:21;5.40;;;2.03;;
53389;SDS011;39288;42.970;1.524;2024-03-02T02:59:21;4.23;;;1.70;;
53389;SDS011;39288;42.970;1.524;2024-03-02T03:00:21;5.37;;;1.63;;
53389;SDS011;39288;42.970;1.524;2024-03-02T03:01:22;3.58;;;1.80;;
53389;SDS011;39288;42.970;1.524;2024-03-02T03:02:23;4.70;;;1.80;;
53389;SDS011;39288;42.970;1.524;2024-03-02T03:03:24;2.77;;;1.80;;
53389;SDS011;39288;42.970;1.524;2024-03-02T03:04:24;9.87;;;2.30;;
53389;SDS011;39288;42.970;1.524;2024-03-02T03:05:25;5.87;;;2.50;;
53389;SDS011;39288;42.970;1.524;2024-03-02T03:06:25;7.43;;;2.30;;
53389;SDS011;39288;42.970;1.524;2024-03-02T03:07:26;8.33;;;3.27;;
53389;SDS011;39288;42.970;1.524;2024-03-02T03:08:26;8.90;;;3.53;;
53389;SDS011;39288;42.970;1.524;2024-03-02T03:09:27;6.57;;;3.27;;
53389;SDS011;39288;42.970;1.524;2024-03-02T03:10:27;8.83;;;2.50;;
53389;SDS011;39288;42.970;1.524;2024-03-02T03:11:28;3.93;;;2.57;;
53389;SDS011;39288;42.970;1.524;2024-03-02T03:12:28;5.23;;;2.77;;
53389;SDS011;39288;42.970;1.524;2024-03-02T03:13:29;5.17;;;2.53;;
53389;SDS011;39288;42.970;1.524;2024-03-02T03:14:29;7.73;;;2.70;;
53389;SDS011;39288;42.970;1.524;2024-03-02T03:15:29;5.13;;;2.00;;
53389;SDS011;39288;42.970;1.524;2024-03-02T03:16:30;4.23;;;2.20;;
53389;SDS011;39288;42.970;1.524;2024-03-02T03:17:30;3.50;;;2.20;;
53389;SDS011;39288;42.970;1.524;2024-03-02T03:18:31;7.97;;;3.13;;
53389;SDS011;39288;42.970;1.524;2024-03-02T03:19:31;6.13;;;3.13;;
53389;SDS011;39288;42.970;1.524;2024-03-02T03:20:32;6.27;;;3.40;;
53389;SDS011;39288;42.970;1.524;2024-03-02T03:21:32;6.30;;;3.20;;
53389;SDS011;39288;42.970;1.524;2024-03-02T03:22:33;6.00;;;3.03;;
53389;SDS011;39288;42.970;1.524;2024-03-02T03:23:35;5.30;;;3.33;;
53389;SDS011;39288;42.970;1.524;2024-03-02T03:24:35;5.20;;;3.27;;
53389;SDS011;39288;42.970;1.524;2024-03-02T03:25:35;9.33;;;2.70;;
53389;SDS011;39288;42.970;1.524;2024-03-02T03:26:36;5.80;;;3.03;;
53389;SDS011;39288;42.970;1.524;2024-03-02T03:27:37;3.93;;;2.43;;
53389;SDS011;39288;42.970;1.524;2024-03-02T03:28:37;7.07;;;2.70;;
53389;SDS011;39288;42.970;1.524;2024-03-02T03:29:38;7.13;;;2.73;;
53389;SDS011;39288;42.970;1.524;2024-03-02T03:30:38;8.83;;;2.40;;
53389;SDS011;39288;42.970;1.524;2024-03-02T03:31:39;4.07;;;2.30;;
53389;SDS011;39288;42.970;1.524;2024-03-02T03:32:40;6.33;;;2.70;;
53389;SDS011;39288;42.970;1.524;2024-03-02T03:33:40;3.80;;;2.03;;
53389;SDS011;39288;42.970;1.524;2024-03-02T03:34:41;5.70;;;2.33;;
53389;SDS011;39288;42.970;1.524;2024-03-02T03:35:41;8.83;;;2.60;;
53389;SDS011;39288;42.970;1.524;2024-03-02T03:36:42;4.03;;;2.03;;
53389;SDS011;39288;42.970;1.524;2024-03-02T03:37:43;4.32;;;2.42;;
53389;SDS011;39288;42.970;1.524;2024-03-02T03:38:43;4.70;;;2.17;;
53389;SDS011;39288;42.970;1.524;2024-03-02T03:39:44;6.00;;;2.27;;
53389;SDS011;39288;42.970;1.524;2024-03-02T03:40:44;4.67;;;2.30;;
53389;SDS011;39288;42.970;1.524;2024-03-02T03:41:45;5.03;;;2.30;;
53389;SDS011;39288;42.970;1.524;2024-03-02T03:42:45;4.70;;;2.80;;
53389;SDS011;39288;42.970;1.524;2024-03-02T03:43:46;6.53;;;2.63;;
53389;SDS011;39288;42.970;1.524;2024-03-02T03:44:46;3.80;;;2.17;;
53389;SDS011;39288;42.970;1.524;2024-03-02T03:45:46;6.63;;;2.93;;
53389;SDS011;39288;42.970;1.524;2024-03-02T03:46:47;5.67;;;3.00;;
53389;SDS011;39288;42.970;1.524;2024-03-02T03:47:47;5.67;;;2.70;;
53389;SDS011;39288;42.970;1.524;2024-03-02T03:48:48;4.17;;;2.67;;
53389;SDS011;39288;42.970;1.524;2024-03-02T03:49:48;5.10;;;2.87;;
53389;SDS011;39288;42.970;1.524;2024-03-02T03:50:49;4.30;;;2.43;;
53389;SDS011;39288;42.970;1.524;2024-03-02T03:51:49;4.47;;;2.80;;
53389;SDS011;39288;42.970;1.524;2024-03-02T03:52:49;5.70;;;2.73;;
53389;SDS011;39288;42.970;1.524;2024-03-02T03:53:50;4.50;;;2.80;;
53389;SDS011;39288;42.970;1.524;2024-03-02T03:54:50;6.53;;;3.00;;
53389;SDS011;39288;42.970;1.524;2024-03-02T03:55:51;4.23;;;2.77;;
53389;SDS011;39288;42.970;1.524;2024-03-02T03:56:51;5.90;;;3.40;;
53389;SDS011;39288;42.970;1.524;2024-03-02T03:57:52;7.30;;;2.90;;
53389;SDS011;39288;42.970;1.524;2024-03-02T03:58:52;8.90;;;3.43;;
53389;SDS011;39288;42.970;1.524;2024-03-02T03:59:53;6.03;;;3.13;;
53389;SDS011;39288;42.970;1.524;2024-03-02T04:00:53;6.30;;;2.80;;
53389;SDS011;39288;42.970;1.524;2024-03-02T04:01:54;5.40;;;2.40;;
53389;SDS011;39288;42.970;1.524;2024-03-02T04:02:54;12.23;;;4.03;;
53389;SDS011;39288;42.970;1.524;2024-03-02T04:03:55;12.00;;;5.07;;
53389;SDS011;39288;42.970;1.524;2024-03-02T04:04:55;6.70;;;3.83;;
53389;SDS011;39288;42.970;1.524;2024-03-02T04:05:56;11.73;;;4.43;;
53389;SDS011;39288;42.970;1.524;2024-03-02T04:06:56;10.57;;;4.20;;
53389;SDS011;39288;42.970;1.524;2024-03-02T04:07:56;8.20;;;4.30;;
53389;SDS011;39288;42.970;1.524;2024-03-02T04:08:57;7.63;;;3.40;;
53389;SDS011;39288;42.970;1.524;2024-03-02T04:09:57;10.23;;;4.00;;
53389;SDS011;39288;42.970;1.524;2024-03-02T04:10:58;8.83;;;3.40;;
53389;SDS011;39288;42.970;1.524;2024-03-02T04:11:58;9.50;;;3.70;;
53389;SDS011;39288;42.970;1.524;2024-03-02T04:12:59;10.80;;;3.60;;
53389;SDS011;39288;42.970;1.524;2024-03-02T04:13:59;10.10;;;3.97;;
53389;SDS011;39288;42.970;1.524;2024-03-02T04:14:59;9.83;;;3.70;;
53389;SDS011;39288;42.970;1.524;2024-03-02T04:16:01;5.72;;;3.25;;
53389;SDS011;39288;42.970;1.524;2024-03-02T04:17:03;8.90;;;3.20;;
53389;SDS011;39288;42.970;1.524;2024-03-02T04:18:04;9.70;;;3.70;;
53389;SDS011;39288;42.970;1.524;2024-03-02T04:19:05;13.03;;;3.67;;
53389;SDS011;39288;42.970;1.524;2024-03-02T04:20:05;6.60;;;2.90;;
53389;SDS011;39288;42.970;1.524;2024-03-02T04:21:06;7.90;;;3.25;;
53389;SDS011;39288;42.970;1.524;2024-03-02T04:22:07;5.33;;;3.10;;
53389;SDS011;39288;42.970;1.524;2024-03-02T04:23:07;4.27;;;2.73;;
53389;SDS011;39288;42.970;1.524;2024-03-02T04:24:07;7.23;;;2.90;;
53389;SDS011;39288;42.970;1.524;2024-03-02T04:25:08;5.07;;;2.43;;
53389;SDS011;39288;42.970;1.524;2024-03-02T04:26:09;5.90;;;2.72;;
53389;SDS011;39288;42.970;1.524;2024-03-02T04:27:10;7.27;;;2.90;;
53389;SDS011;39288;42.970;1.524;2024-03-02T04:28:10;7.30;;;2.70;;
53389;SDS011;39288;42.970;1.524;2024-03-02T04:29:12;6.13;;;2.80;;
53389;SDS011;39288;42.970;1.524;2024-03-02T04:30:13;8.90;;;3.13;;
53389;SDS011;39288;42.970;1.524;2024-03-02T04:31:14;6.37;;;2.30;;
53389;SDS011;39288;42.970;1.524;2024-03-02T04:32:15;6.82;;;2.85;;
53389;SDS011;39288;42.970;1.524;2024-03-02T04:33:15;5.20;;;3.00;;
53389;SDS011;39288;42.970;1.524;2024-03-02T04:34:16;7.67;;;2.93;;
53389;SDS011;39288;42.970;1.524;2024-03-02T04:35:16;3.63;;;2.40;;
53389;SDS011;39288;42.970;1.524;2024-03-02T04:36:17;6.47;;;2.80;;
53389;SDS011;39288;42.970;1.524;2024-03-02T04:37:17;5.97;;;2.93;;
53389;SDS011;39288;42.970;1.524;2024-03-02T04:38:18;10.47;;;3.60;;
53389;SDS011;39288;42.970;1.524;2024-03-02T04:39:18;5.97;;;2.50;;
53389;SDS011;39288;42.970;1.524;2024-03-02T04:40:19;10.27;;;3.00;;
53389;SDS011;39288;42.970;1.524;2024-03-02T04:41:19;5.10;;;3.00;;
53389;SDS011;39288;42.970;1.524;2024-03-02T04:42:20;5.60;;;2.73;;
53389;SDS011;39288;42.970;1.524;2024-03-02T04:43:20;5.83;;;2.90;;
53389;SDS011;39288;42.970;1.524;2024-03-02T04:44:20;6.47;;;3.50;;
53389;SDS011;39288;42.970;1.524;2024-03-02T04:45:21;7.37;;;4.10;;
53389;SDS011;39288;42.970;1.524;2024-03-02T04:46:21;13.73;;;4.23;;
53389;SDS011;39288;42.970;1.524;2024-03-02T04:47:22;5.53;;;3.50;;
53389;SDS011;39288;42.970;1.524;2024-03-02T04:48:22;10.00;;;4.17;;
53389;SDS011;39288;42.970;1.524;2024-03-02T04:49:23;5.80;;;2.83;;
53389;SDS011;39288;42.970;1.524;2024-03-02T04:50:23;4.10;;;2.83;;
53389;SDS011;39288;42.970;1.524;2024-03-02T04:51:24;3.97;;;2.70;;
53389;SDS011;39288;42.970;1.524;2024-03-02T04:52:24;6.73;;;3.03;;
53389;SDS011;39288;42.970;1.524;2024-03-02T04:53:25;4.53;;;2.50;;
53389;SDS011;39288;42.970;1.524;2024-03-02T04:54:25;5.83;;;2.60;;
53389;SDS011;39288;42.970;1.524;2024-03-02T04:55:26;4.17;;;2.33;;
53389;SDS011;39288;42.970;1.524;2024-03-02T04:56:29;5.68;;;2.70;;
53389;SDS011;39288;42.970;1.524;2024-03-02T04:57:32;6.38;;;2.30;;
53389;SDS011;39288;42.970;1.524;2024-03-02T04:58:32;5.07;;;2.13;;
53389;SDS011;39288;42.970;1.524;2024-03-02T04:59:33;4.17;;;2.10;;
53389;SDS011;39288;42.970;1.524;2024-03-02T05:00:33;3.33;;;2.23;;
53389;SDS011;39288;42.970;1.524;2024-03-02T05:01:34;4.22;;;2.42;;
53389;SDS011;39288;42.970;1.524;2024-03-02T05:02:34;5.87;;;2.23;;
53389;SDS011;39288;42.970;1.524;2024-03-02T05:03:35;5.07;;;2.43;;
53389;SDS011;39288;42.970;1.524;2024-03-02T05:04:36;4.47;;;2.20;;
53389;SDS011;39288;42.970;1.524;2024-03-02T05:05:36;2.87;;;1.90;;
53389;SDS011;39288;42.970;1.524;2024-03-02T05:07:42;3.85;;;2.00;;
53389;SDS011;39288;42.970;1.524;2024-03-02T05:08:43;6.82;;;2.50;;
53389;SDS011;39288;42.970;1.524;2024-03-02T05:09:44;3.45;;;2.17;;
53389;SDS011;39288;42.970;1.524;2024-03-02T05:10:45;4.40;;;2.73;;
53389;SDS011;39288;42.970;1.524;2024-03-02T05:11:45;4.10;;;2.27;;
53389;SDS011;39288;42.970;1.524;2024-03-02T05:13:06;3.92;;;2.10;;
53389;SDS011;39288;42.970;1.524;2024-03-02T05:14:07;4.65;;;2.72;;
53389;SDS011;39288;42.970;1.524;2024-03-02T05:15:08;5.53;;;3.27;;
53389;SDS011;39288;42.970;1.524;2024-03-02T05:16:10;6.15;;;3.10;;
53389;SDS011;39288;42.970;1.524;2024-03-02T05:17:11;7.55;;;2.90;;
53389;SDS011;39288;42.970;1.524;2024-03-02T05:18:12;6.33;;;3.33;;
53389;SDS011;39288;42.970;1.524;2024-03-02T05:19:12;7.17;;;2.70;;
53389;SDS011;39288;42.970;1.524;2024-03-02T05:20:12;3.37;;;2.23;;
53389;SDS011;39288;42.970;1.524;2024-03-02T05:21:13;4.40;;;2.43;;
53389;SDS011;39288;42.970;1.524;2024-03-02T05:22:13;3.67;;;2.30;;
53389;SDS011;39288;42.970;1.524;2024-03-02T05:23:14;3.63;;;2.07;;
53389;SDS011;39288;42.970;1.524;2024-03-02T05:24:14;4.43;;;2.47;;
53389;SDS011;39288;42.970;1.524;2024-03-02T05:25:15;4.33;;;2.60;;
53389;SDS011;39288;42.970;1.524;2024-03-02T05:26:15;2.93;;;1.93;;
53389;SDS011;39288;42.970;1.524;2024-03-02T05:27:16;3.40;;;2.00;;
53389;SDS011;39288;42.970;1.524;2024-03-02T05:28:17;2.83;;;2.07;;
53389;SDS011;39288;42.970;1.524;2024-03-02T05:29:17;3.77;;;2.07;;
53389;SDS011;39288;42.970;1.524;2024-03-02T05:30:18;2.37;;;1.87;;
53389;SDS011;39288;42.970;1.524;2024-03-02T05:31:18;6.27;;;2.30;;
53389;SDS011;39288;42.970;1.524;2024-03-02T05:32:18;4.37;;;2.20;;
53389;SDS011;39288;42.970;1.524;2024-03-02T05:33:19;3.67;;;2.17;;
53389;SDS011;39288;42.970;1.524;2024-03-02T05:34:22;4.68;;;2.38;;
53389;SDS011;39288;42.970;1.524;2024-03-02T05:35:22;4.97;;;3.20;;
53389;SDS011;39288;42.970;1.524;2024-03-02T05:36:23;4.40;;;2.57;;
53389;SDS011;39288;42.970;1.524;2024-03-02T05:37:23;4.17;;;2.53;;
53389;SDS011;39288;42.970;1.524;2024-03-02T05:38:24;4.47;;;2.10;;
53389;SDS011;39288;42.970;1.524;2024-03-02T05:39:24;3.60;;;2.03;;
53389;SDS011;39288;42.970;1.524;2024-03-02T05:40:25;4.10;;;2.73;;
53389;SDS011;39288;42.970;1.524;2024-03-02T05:41:25;3.43;;;2.23;;
53389;SDS011;39288;42.970;1.524;2024-03-02T05:42:26;5.80;;;2.43;;
53389;SDS011;39288;42.970;1.524;2024-03-02T05:43:27;4.00;;;2.20;;
53389;SDS011;39288;42.970;1.524;2024-03-02T05:44:28;3.80;;;2.13;;
53389;SDS011;39288;42.970;1.524;2024-03-02T05:45:29;3.93;;;2.07;;
53389;SDS011;39288;42.970;1.524;2024-03-02T05:46:30;3.23;;;1.90;;
53389;SDS011;39288;42.970;1.524;2024-03-02T05:47:30;4.67;;;2.33;;
53389;SDS011;39288;42.970;1.524;2024-03-02T05:48:31;3.83;;;2.10;;
53389;SDS011;39288;42.970;1.524;2024-03-02T05:49:31;3.93;;;2.20;;
53389;SDS011;39288;42.970;1.524;2024-03-02T05:50:31;5.30;;;2.23;;
53389;SDS011;39288;42.970;1.524;2024-03-02T05:51:32;4.60;;;2.70;;
53389;SDS011;39288;42.970;1.524;2024-03-02T05:52:32;5.73;;;2.47;;
53389;SDS011;39288;42.970;1.524;2024-03-02T05:53:33;5.60;;;2.47;;
53389;SDS011;39288;42.970;1.524;2024-03-02T05:54:33;6.10;;;2.53;;
53389;SDS011;39288;42.970;1.524;2024-03-02T05:55:34;5.07;;;2.20;;
53389;SDS011;39288;42.970;1.524;2024-03-02T05:56:35;3.20;;;2.13;;
53389;SDS011;39288;42.970;1.524;2024-03-02T05:57:35;4.27;;;2.30;;
53389;SDS011;39288;42.970;1.524;2024-03-02T05:58:49;5.93;;;2.35;;
53389;SDS011;39288;42.970;1.524;2024-03-02T06:00:00;5.13;;;1.80;;
53389;SDS011;39288;42.970;1.524;2024-03-02T06:01:01;6.07;;;2.43;;
53389;SDS011;39288;42.970;1.524;2024-03-02T06:02:01;7.80;;;2.27;;
53389;SDS011;39288;42.970;1.524;2024-03-02T06:03:01;4.53;;;2.27;;
53389;SDS011;39288;42.970;1.524;2024-03-02T06:04:02;5.53;;;2.37;;
53389;SDS011;39288;42.970;1.524;2024-03-02T06:05:03;8.40;;;2.27;;
53389;SDS011;39288;42.970;1.524;2024-03-02T06:06:04;3.25;;;2.10;;
53389;SDS011;39288;42.970;1.524;2024-03-02T06:07:05;4.88;;;2.47;;
53389;SDS011;39288;42.970;1.524;2024-03-02T06:08:06;5.73;;;2.03;;
53389;SDS011;39288;42.970;1.524;2024-03-02T06:09:07;5.00;;;2.55;;
53389;SDS011;39288;42.970;1.524;2024-03-02T06:10:08;4.17;;;2.70;;
53389;SDS011;39288;42.970;1.524;2024-03-02T06:11:08;5.63;;;2.60;;
53389;SDS011;39288;42.970;1.524;2024-03-02T06:12:09;4.93;;;2.07;;
53389;SDS011;39288;42.970;1.524;2024-03-02T06:13:09;6.77;;;2.40;;